Time;durP1;ratioP1;P1;durP2;ratioP2;P2;SDS_P1;SDS_P2;PMS_P1;PMS_P2;Temp;Humidity;BMP_temperature;BMP_pressure;BME280_temperature;BME280_humidity;BME280_pressure;Samples;Min_cycle;Max_cycle;Signal;HPM_P1;HPM_P2
2022/01/19 00:01:05;;;;;;;44.93;21.30;;;;;;;0.05;91.12;102164.12;1632505;86;26024;-77
2022/01/19 00:03:31;;;;;;;39.38;18.45;;;;;;;0.05;91.01;102173.35;1632351;86;25789;-76
2022/01/19 00:05:58;;;;;;;43.35;18.67;;;;;;;0.03;90.86;102169.49;1632469;87;25908;-77
2022/01/19 00:08:26;;;;;;;38.48;16.82;;;;;;;0.02;90.79;102173.08;1632314;87;27597;-76
2022/01/19 00:10:53;;;;;;;38.42;16.87;;;;;;;0.03;90.81;102175.22;1632560;86;26550;-76
2022/01/19 00:13:19;;;;;;;37.58;17.23;;;;;;;0.01;91.00;102173.99;1632536;87;26448;-75
2022/01/19 00:15:46;;;;;;;36.38;16.80;;;;;;;-0.02;91.00;102171.05;1632455;87;26275;-77
2022/01/19 00:18:15;;;;;;;33.92;15.63;;;;;;;-0.02;91.00;102158.34;1632742;87;25909;-75
2022/01/19 00:20:41;;;;;;;39.13;17.95;;;;;;;-0.04;90.98;102143.94;1632269;86;27441;-77
2022/01/19 00:23:09;;;;;;;41.63;16.48;;;;;;;-0.01;91.03;102145.56;1632174;87;26449;-77
2022/01/19 00:25:37;;;;;;;35.30;15.05;;;;;;;-0.01;91.20;102146.42;1632505;87;25777;-76
2022/01/19 00:28:04;;;;;;;36.15;16.37;;;;;;;0.02;91.18;102139.29;1632523;87;25905;-77
2022/01/19 00:30:30;;;;;;;43.17;17.87;;;;;;;0.03;91.24;102131.30;1632428;86;25801;-76
2022/01/19 00:32:57;;;;;;;43.75;18.25;;;;;;;0.04;91.29;102134.33;1632566;87;27005;-76
2022/01/19 00:35:23;;;;;;;48.42;19.37;;;;;;;0.06;91.27;102125.88;1632255;87;25874;-75
2022/01/19 00:37:50;;;;;;;41.53;17.35;;;;;;;0.09;91.30;102122.20;1632282;87;25874;-76
2022/01/19 00:40:17;;;;;;;39.05;16.57;;;;;;;0.10;91.25;102120.82;1632276;86;25855;-76
2022/01/19 00:42:44;;;;;;;43.02;17.50;;;;;;;0.12;91.28;102121.59;1632284;87;25862;-76
2022/01/19 00:45:13;;;;;;;41.58;18.10;;;;;;;0.14;91.31;102115.77;1632523;87;27511;-77
2022/01/19 00:47:41;;;;;;;43.15;18.55;;;;;;;0.16;91.25;102117.84;1632534;87;25888;-76
2022/01/19 00:50:12;;;;;;;40.45;17.10;;;;;;;0.20;91.22;102118.52;1632096;86;25854;-76
2022/01/19 00:52:39;;;;;;;38.70;15.20;;;;;;;0.22;91.16;102115.33;1631888;87;25915;-76
2022/01/19 00:55:09;;;;;;;44.58;18.45;;;;;;;0.26;91.22;102113.77;1632571;87;26175;-76
2022/01/19 00:57:35;;;;;;;49.20;19.65;;;;;;;0.26;91.10;102112.45;1632449;87;28418;-76
2022/01/19 01:00:06;;;;;;;42.93;18.57;;;;;;;0.27;91.11;102114.16;1632520;86;25960;-76
2022/01/19 01:02:32;;;;;;;41.50;18.02;;;;;;;0.29;91.13;102107.02;1632238;87;26460;-77
2022/01/19 01:04:59;;;;;;;43.38;18.90;;;;;;;0.33;91.12;102101.11;1632720;87;25939;-75
2022/01/19 01:07:25;;;;;;;43.08;18.10;;;;;;;0.36;91.12;102095.67;1632724;87;26405;-75
2022/01/19 01:09:51;;;;;;;39.67;17.12;;;;;;;0.38;91.03;102092.48;1632606;86;27992;-77
2022/01/19 01:12:24;;;;;;;44.85;18.57;;;;;;;0.39;91.00;102090.22;1632509;87;26443;-75
2022/01/19 01:20:20;;;;;;;49.45;19.20;;;;;;;0.41;90.91;102073.39;1632457;86;25779;-76
2022/01/19 01:22:47;;;;;;;45.30;18.20;;;;;;;0.41;90.89;102076.02;1631985;87;27500;-76
2022/01/19 01:25:15;;;;;;;47.17;19.60;;;;;;;0.42;90.93;102062.38;1632566;87;25915;-75
2022/01/19 01:27:41;;;;;;;47.03;21.25;;;;;;;0.42;90.91;102053.16;1632490;87;25803;-76
2022/01/19 01:30:09;;;;;;;44.15;19.35;;;;;;;0.44;90.92;102048.65;1632313;86;26593;-76
2022/01/19 01:32:35;;;;;;;48.00;19.90;;;;;;;0.46;90.90;102042.82;1632301;87;26041;-76
2022/01/19 01:35:02;;;;;;;43.13;20.17;;;;;;;0.46;90.83;102032.27;1632217;87;27462;-76
2022/01/19 01:37:29;;;;;;;52.83;20.30;;;;;;;0.48;90.88;102028.62;1631290;87;25851;-76
2022/01/19 01:39:56;;;;;;;41.50;18.55;;;;;;;0.50;90.84;102021.47;1631184;86;26668;-76
2022/01/19 01:42:23;;;;;;;39.50;17.23;;;;;;;0.52;90.75;102017.42;1631161;87;25880;-76
2022/01/19 01:44:52;;;;;;;40.50;18.20;;;;;;;0.51;90.71;102009.15;1631762;87;25912;-76
2022/01/19 01:47:20;;;;;;;43.50;19.62;;;;;;;0.51;90.71;102003.37;1631672;87;27489;-77
2022/01/19 01:55:17;;;;;;;44.40;17.05;;;;;;;0.51;90.84;101987.56;1631555;87;25831;-75
2022/01/19 01:57:43;;;;;;;45.12;17.48;;;;;;;0.52;90.95;101980.52;1631133;87;25949;-76
2022/01/19 02:00:14;;;;;;;50.65;20.90;;;;;;;0.53;91.05;101976.95;1619733;87;28381;-76
2022/01/19 02:02:45;;;;;;;41.18;15.98;;;;;;;0.53;91.08;101969.91;1631104;87;25634;-75
2022/01/19 02:05:14;;;;;;;38.23;16.75;;;;;;;0.56;91.21;101964.89;1631328;87;25808;-76
2022/01/19 02:07:58;;;;;;;42.75;16.48;;;;;;;0.52;91.32;101942.28;1631645;87;25775;-75
2022/01/19 02:16:18;;;;;;;41.73;17.48;;;;;;;0.50;91.94;101940.22;1630989;87;25751;-76
2022/01/19 02:23:55;;;;;;;38.45;16.85;;;;;;;0.50;92.41;101956.03;1631033;87;26207;-76
2022/01/19 02:26:29;;;;;;;41.80;15.58;;;;;;;0.51;92.55;101948.52;1631284;87;27469;-75
2022/01/19 02:29:17;;;;;;;43.05;17.73;;;;;;;0.51;93.02;101942.75;1630586;87;25756;-76
2022/01/19 02:36:34;;;;;;;36.77;15.60;;;;;;;0.52;92.86;101948.87;1630264;86;25764;-76
2022/01/19 02:40:23;;;;;;;37.58;15.68;;;;;;;0.48;93.57;101929.77;1620049;87;27619;-76
2022/01/19 02:42:24;;;;;;;48.08;17.15;;;;;;;0.47;93.67;101917.52;1613286;87;26003;-75
2022/01/19 02:49:48;;;;;;;46.20;16.67;;;;;;;0.45;94.14;101897.48;1619988;87;25786;-76
2022/01/19 02:52:17;;;;;;;34.03;15.27;;;;;;;0.45;94.16;101890.39;1619770;87;27619;-76
2022/01/19 02:54:44;;;;;;;40.55;16.60;;;;;;;0.43;94.64;101890.95;1620154;87;26154;-76
2022/01/19 02:57:13;;;;;;;46.18;19.77;;;;;;;0.42;94.54;101880.52;1620309;87;25789;-75
2022/01/19 03:10:38;;;;;;;40.45;16.52;;;;;;;0.47;95.52;101871.88;1620061;87;26089;-76
2022/01/19 03:13:05;;;;;;;34.58;15.00;;;;;;;0.47;95.35;101867.92;1620001;87;25760;-76
2022/01/19 03:15:31;;;;;;;41.08;16.82;;;;;;;0.49;95.80;101859.45;1620245;88;25775;-76
2022/01/19 03:17:59;;;;;;;39.30;16.00;;;;;;;0.49;95.76;101844.95;1620157;87;28225;-76
2022/01/19 03:20:28;;;;;;;36.68;16.42;;;;;;;0.51;95.89;101843.07;1619827;87;25935;-76
2022/01/19 03:25:27;;;;;;;38.65;14.60;;;;;;;0.56;95.92;101831.76;1619978;87;25891;-76
2022/01/19 03:27:53;;;;;;;39.00;15.70;;;;;;;0.58;96.12;101825.45;1620563;87;25808;-77
2022/01/19 03:30:21;;;;;;;35.05;15.32;;;;;;;0.60;96.23;101816.13;1619955;87;27442;-76
2022/01/19 03:32:48;;;;;;;35.78;15.00;;;;;;;0.61;96.30;101810.78;1619918;87;26133;-76
2022/01/19 03:35:15;;;;;;;40.75;16.62;;;;;;;0.63;96.47;101801.45;1620246;87;25794;-76
2022/01/19 03:37:41;;;;;;;30.82;13.95;;;;;;;0.64;96.52;101793.94;1631185;87;26589;-76
2022/01/19 03:40:09;;;;;;;38.42;16.93;;;;;;;0.66;96.49;101788.09;1630989;86;26427;-76
2022/01/19 03:42:35;;;;;;;39.40;17.45;;;;;;;0.68;96.42;101780.44;1631308;87;27540;-77
2022/01/19 03:45:04;;;;;;;35.20;16.37;;;;;;;0.70;96.58;101783.00;1631161;86;25757;-76
2022/01/19 03:47:38;;;;;;;43.65;16.93;;;;;;;0.72;96.44;101782.44;1631477;86;25789;-76
2022/01/19 03:49:58;;;;;;;40.30;16.50;;;;;;;0.74;96.52;101771.32;1630704;86;25977;-77
2022/01/19 03:52:25;;;;;;;34.27;17.07;;;;;;;0.76;96.60;101762.84;1631088;87;25945;-76
2022/01/19 03:54:51;;;;;;;31.35;14.83;;;;;;;0.79;96.54;101762.66;1631295;87;27460;-76
2022/01/19 03:57:17;;;;;;;36.03;16.12;;;;;;;0.81;96.63;101761.23;1630838;87;25733;-76
2022/01/19 03:59:44;;;;;;;35.80;17.15;;;;;;;0.82;96.67;101755.00;1631224;86;25823;-77
2022/01/19 04:02:10;;;;;;;37.63;18.12;;;;;;;0.84;96.54;101769.80;1631113;86;25881;-76
2022/01/19 04:04:42;;;;;;;42.75;16.85;;;;;;;0.86;96.54;101762.63;1631294;87;25938;-76
2022/01/19 04:09:36;;;;;;;39.53;18.05;;;;;;;0.91;96.51;101750.01;1630950;86;26517;-76
2022/01/19 04:12:06;;;;;;;;;;;;;;;0.92;96.64;101758.28;1633600;86;26545;-76
2022/01/19 04:14:33;;;;;;;44.60;17.95;;;;;;;0.92;96.56;101745.59;1631138;86;25966;-77
2022/01/19 04:17:08;;;;;;;40.00;16.95;;;;;;;0.93;97.00;101748.13;1631298;87;25964;-76
2022/01/19 04:19:43;;;;;;;39.03;19.48;;;;;;;0.93;96.82;101745.48;1631135;86;27479;-77
2022/01/19 04:22:08;;;;;;;41.58;19.17;;;;;;;0.95;96.81;101739.63;1630695;86;25810;-76
2022/01/19 04:24:36;;;;;;;44.18;19.75;;;;;;;0.97;97.06;101740.84;1631402;86;26181;-77
2022/01/19 04:32:33;;;;;;;37.88;16.70;;;;;;;1.00;97.16;101736.24;1631071;87;28783;-76
2022/01/19 04:34:53;;;;;;;34.73;18.92;;;;;;;1.01;96.98;101722.09;1629675;87;26538;-76
2022/01/19 04:45:53;;;;;;;34.85;16.17;;;;;;;1.13;96.84;101706.81;1632275;87;27487;-77
2022/01/19 04:48:16;;;;;;;36.33;18.55;;;;;;;1.16;97.00;101701.31;1628637;87;25866;-76
2022/01/19 05:02:00;;;;;;;34.20;15.50;;;;;;;1.23;96.91;101689.89;1632311;87;25807;-75
2022/01/19 05:06:51;;;;;;;25.92;14.00;;;;;;;1.27;97.09;101680.81;1631801;87;26508;-76
2022/01/19 05:09:54;;;;;;;30.50;15.40;;;;;;;1.27;97.45;101684.31;1631936;86;25771;-76
2022/01/19 05:14:42;;;;;;;31.30;15.50;;;;;;;1.31;97.13;101685.80;1632097;87;25767;-76
2022/01/19 05:17:09;;;;;;;29.40;15.55;;;;;;;1.33;96.88;101674.66;1632447;87;25933;-77
2022/01/19 05:19:37;;;;;;;30.00;13.53;;;;;;;1.35;96.84;101679.83;1632351;86;26596;-77
2022/01/19 05:22:04;;;;;;;28.45;15.30;;;;;;;1.37;96.88;101672.19;1608079;87;25337;-76
2022/01/19 05:24:35;;;;;;;36.65;17.30;;;;;;;1.39;96.81;101669.47;1630893;87;27532;-76
2022/01/19 05:27:06;;;;;;;;;;;;;;;1.41;96.68;101672.84;1634413;87;25959;-77
2022/01/19 05:29:34;;;;;;;21.55;11.55;;;;;;;1.43;96.63;101669.13;1632185;86;25845;-76
2022/01/19 05:32:01;;;;;;;25.15;11.93;;;;;;;1.43;96.71;101663.03;1632199;87;25999;-75
2022/01/19 05:34:27;;;;;;;28.42;13.35;;;;;;;1.44;96.72;101664.70;1632376;87;25811;-76
2022/01/19 05:37:01;;;;;;;28.67;13.38;;;;;;;1.44;96.61;101660.75;1629631;87;28828;-76
2022/01/19 05:39:41;;;;;;;26.68;13.50;;;;;;;1.45;96.62;101650.08;1631048;86;25882;-77
2022/01/19 05:42:16;;;;;;;25.95;13.70;;;;;;;1.47;96.66;101655.27;1630676;87;25776;-76
2022/01/19 05:44:47;;;;;;;29.63;14.53;;;;;;;1.48;96.59;101645.92;1631152;86;25924;-76
2022/01/19 05:47:14;;;;;;;33.00;15.55;;;;;;;1.50;96.57;101647.13;1631425;87;26358;-75
2022/01/19 05:49:44;;;;;;;31.77;13.25;;;;;;;1.51;96.63;101650.16;1631074;86;27478;-77
2022/01/19 05:52:13;;;;;;;33.95;13.50;;;;;;;1.52;96.59;101645.23;1631386;86;25809;-76
2022/01/19 05:54:39;;;;;;;23.65;11.30;;;;;;;1.53;96.65;101642.98;1631596;86;25791;-76
2022/01/19 05:57:06;;;;;;;32.58;13.98;;;;;;;1.54;96.46;101646.82;1631222;86;25993;-77
2022/01/19 05:59:35;;;;;;;24.75;11.05;;;;;;;1.58;96.41;101643.98;1631201;86;26002;-76
2022/01/19 06:02:02;;;;;;;28.87;13.50;;;;;;;1.58;96.41;101634.28;1631511;87;27460;-77
2022/01/19 06:04:28;;;;;;;28.42;13.40;;;;;;;1.58;96.33;101636.92;1631307;87;25806;-77
2022/01/19 06:07:03;;;;;;;27.87;12.70;;;;;;;1.60;96.20;101629.73;1630695;86;25355;-76
2022/01/19 06:09:36;;;;;;;25.80;13.40;;;;;;;1.61;96.35;101616.89;1630826;86;26192;-76
2022/01/19 06:12:08;;;;;;;37.28;14.68;;;;;;;1.62;96.31;101623.87;1631276;87;26009;-77
2022/01/19 06:14:38;;;;;;;36.40;14.53;;;;;;;1.63;96.21;101622.91;1631488;87;27495;-77
2022/01/19 06:17:07;;;;;;;28.60;13.28;;;;;;;1.64;96.10;101620.66;1631312;87;25800;-76
2022/01/19 06:19:34;;;;;;;31.90;15.75;;;;;;;1.64;96.19;101616.69;1631130;86;25933;-76
2022/01/19 06:22:00;;;;;;;34.98;14.60;;;;;;;1.65;96.14;101614.41;1631143;87;26002;-76
2022/01/19 06:24:27;;;;;;;27.90;12.55;;;;;;;1.66;96.10;101616.11;1631429;87;26453;-77
2022/01/19 06:26:55;;;;;;;30.32;14.80;;;;;;;1.68;96.06;101616.84;1631151;87;28476;-77
2022/01/19 06:29:22;;;;;;;29.57;15.50;;;;;;;1.69;95.95;101613.23;1618677;87;25789;-76
2022/01/19 06:31:49;;;;;;;36.98;14.43;;;;;;;1.70;95.91;101607.48;1608828;88;26479;-76
2022/01/19 06:34:16;;;;;;;29.15;14.38;;;;;;;1.70;95.85;101609.66;1610407;88;26582;-76
2022/01/19 06:36:44;;;;;;;28.52;14.23;;;;;;;1.73;95.81;101598.90;1624475;86;26039;-77
2022/01/19 06:39:12;;;;;;;25.10;14.20;;;;;;;1.73;95.78;101602.86;1630848;86;27463;-77
2022/01/19 06:41:40;;;;;;;32.40;15.53;;;;;;;1.74;95.86;101607.17;1632177;87;25929;-76
2022/01/19 06:44:09;;;;;;;39.18;17.80;;;;;;;1.75;95.75;101609.34;1632533;87;25827;-77
2022/01/19 06:46:36;;;;;;;29.85;14.90;;;;;;;1.77;95.81;101608.30;1632721;86;25956;-75
2022/01/19 06:49:02;;;;;;;30.12;15.25;;;;;;;1.77;95.87;101604.80;1632924;87;25991;-77
2022/01/19 06:51:31;;;;;;;33.88;15.72;;;;;;;1.80;95.70;101603.25;1632924;85;27512;-76
2022/01/19 06:53:59;;;;;;;29.23;13.98;;;;;;;1.81;95.71;101603.17;1632305;87;25810;-76
2022/01/19 06:56:36;;;;;;;34.25;14.78;;;;;;;1.82;95.63;101604.02;1632093;87;25909;-76
2022/01/19 06:59:00;;;;;;;25.23;14.20;;;;;;;1.83;95.55;101601.73;1630125;87;25947;-75
2022/01/19 07:01:33;;;;;;;25.80;13.58;;;;;;;1.83;95.58;101597.30;1632208;87;26549;-77
2022/01/19 07:04:17;;;;;;;25.95;12.98;;;;;;;1.84;95.56;101596.33;1612735;87;28178;-76
2022/01/19 07:06:43;;;;;;;30.02;16.07;;;;;;;1.85;95.56;101598.03;1632965;87;26458;-76
2022/01/19 07:09:14;;;;;;;27.02;13.55;;;;;;;1.87;95.48;101596.13;1632559;86;26631;-77
2022/01/19 07:11:45;;;;;;;27.30;13.28;;;;;;;1.88;95.56;101594.34;1632280;86;26337;-76
2022/01/19 07:14:17;;;;;;;31.60;15.30;;;;;;;1.89;95.57;101594.70;1633422;87;26462;-77
2022/01/19 07:16:43;;;;;;;31.20;15.35;;;;;;;1.88;95.59;101593.84;1633407;87;28363;-76
2022/01/19 07:19:13;;;;;;;33.78;17.35;;;;;;;1.90;95.52;101587.16;1611317;86;25887;-76
2022/01/19 07:21:41;;;;;;;36.28;15.45;;;;;;;1.90;95.50;101585.36;1633206;87;25762;-76
2022/01/19 07:24:07;;;;;;;32.58;15.95;;;;;;;1.91;95.47;101587.50;1633197;87;26266;-77
2022/01/19 07:26:34;;;;;;;29.95;14.70;;;;;;;1.92;95.49;101579.50;1633091;87;25875;-75
2022/01/19 07:29:01;;;;;;;23.45;13.00;;;;;;;1.93;95.43;101581.64;1633436;87;27604;-76
2022/01/19 07:31:28;;;;;;;32.75;15.63;;;;;;;1.93;95.49;101579.84;1633130;86;26323;-76
2022/01/19 07:33:56;;;;;;;30.08;15.50;;;;;;;1.96;95.34;101587.57;1632726;87;25805;-76
2022/01/19 07:36:23;;;;;;;29.60;15.65;;;;;;;1.98;95.31;101581.70;1632683;87;26602;-76
2022/01/19 07:38:51;;;;;;;35.58;15.55;;;;;;;1.99;95.34;101574.12;1622517;87;25846;-77
2022/01/19 07:41:18;;;;;;;32.93;16.60;;;;;;;2.00;95.25;101574.51;1620075;87;27684;-76
2022/01/19 07:43:46;;;;;;;26.87;14.33;;;;;;;2.01;95.27;101579.33;1619808;87;25327;-76
2022/01/19 07:46:26;;;;;;;26.65;13.75;;;;;;;2.02;95.22;101571.28;1620410;88;26558;-75
2022/01/19 07:49:11;;;;;;;34.25;16.05;;;;;;;2.04;95.21;101569.84;1620039;87;26582;-76
2022/01/19 07:51:39;;;;;;;27.60;15.10;;;;;;;2.06;95.15;101570.11;1619590;87;25960;-77
2022/01/19 07:54:10;;;;;;;35.33;18.05;;;;;;;2.08;95.10;101569.98;1618860;87;27495;-77
2022/01/19 07:56:42;;;;;;;33.55;19.07;;;;;;;2.08;95.10;101564.70;1617412;87;26306;-76
2022/01/19 07:59:17;;;;;;;46.02;22.98;;;;;;;2.09;95.11;101555.84;1618482;87;25631;-75
2022/01/19 08:01:53;;;;;;;41.55;20.77;;;;;;;2.11;95.10;101555.25;1608982;88;25939;-76
2022/01/19 08:04:30;;;;;;;35.50;17.98;;;;;;;2.14;95.10;101550.58;1617703;88;25309;-76
2022/01/19 08:06:56;;;;;;;32.73;19.32;;;;;;;2.15;95.01;101544.82;1618045;87;28310;-77
2022/01/19 08:09:25;;;;;;;33.13;19.52;;;;;;;2.16;94.95;101551.31;1619825;87;26034;-76
2022/01/19 08:11:52;;;;;;;33.55;19.00;;;;;;;2.17;94.90;101542.91;1605553;88;25363;-77
2022/01/19 08:14:24;;;;;;;33.73;17.73;;;;;;;2.18;94.89;101538.83;1617748;88;26598;-76
2022/01/19 08:16:49;;;;;;;40.33;20.90;;;;;;;2.18;94.84;101540.15;1618611;87;25979;-75
2022/01/19 08:19:15;;;;;;;36.33;20.17;;;;;;;2.19;94.88;101541.85;1615968;87;27550;-77
2022/01/19 08:21:41;;;;;;;41.15;18.30;;;;;;;2.19;94.76;101538.36;1599254;88;25807;-77
2022/01/19 08:24:09;;;;;;;36.35;18.42;;;;;;;2.20;94.74;101538.73;1619893;88;36164;-76
2022/01/19 08:26:36;;;;;;;34.38;18.10;;;;;;;2.19;94.72;101539.20;1616595;87;26510;-76
2022/01/19 08:29:07;;;;;;;40.73;19.65;;;;;;;2.20;94.70;101537.42;1619609;88;25742;-76
2022/01/19 08:31:34;;;;;;;;;;;;;;;2.18;94.67;101530.89;1622488;88;27597;-75
2022/01/19 08:34:12;;;;;;;46.88;21.07;;;;;;;2.18;94.73;101524.80;1617118;88;25961;-76
2022/01/19 08:36:58;;;;;;;38.50;19.05;;;;;;;2.15;94.88;101522.36;1618578;88;26560;-76
2022/01/19 08:39:27;;;;;;;42.35;19.40;;;;;;;2.15;94.89;101520.56;1630616;86;26832;-77
2022/01/19 08:41:55;;;;;;;44.88;25.57;;;;;;;2.17;94.99;101528.37;1632640;87;25671;-77
2022/01/19 08:44:22;;;;;;;39.00;20.85;;;;;;;2.18;94.91;101527.44;1632858;87;28407;-76
2022/01/19 08:46:51;;;;;;;31.27;18.17;;;;;;;2.18;94.92;101507.61;1632492;87;25808;-76
2022/01/19 08:49:25;;;;;;;31.15;16.48;;;;;;;2.20;94.97;101505.70;1629964;86;26510;-77
2022/01/19 08:52:05;;;;;;;62.40;32.90;;;;;;;2.20;94.92;101502.55;1627933;87;26648;-76
2022/01/19 08:54:33;;;;;;;52.35;28.27;;;;;;;2.22;94.91;101501.14;1624156;87;26528;-76
2022/01/19 08:57:05;;;;;;;44.10;28.73;;;;;;;2.23;94.86;101491.77;1631922;87;27483;-76
2022/01/19 08:59:32;;;;;;;46.35;22.42;;;;;;;2.24;94.81;101496.12;1632252;86;25815;-77
2022/01/19 09:01:59;;;;;;;34.30;18.07;;;;;;;2.26;94.81;101492.03;1632476;87;26459;-77
2022/01/19 09:04:25;;;;;;;32.83;19.37;;;;;;;2.27;94.77;101499.84;1632548;87;25793;-76
2022/01/19 09:06:53;;;;;;;35.52;20.10;;;;;;;2.29;94.68;101494.44;1633189;87;25369;-77
2022/01/19 09:09:20;;;;;;;42.38;21.25;;;;;;;2.30;94.64;101489.53;1633076;86;27469;-77
2022/01/19 09:11:46;;;;;;;36.08;19.23;;;;;;;2.30;94.57;101486.41;1632660;87;26001;-77
2022/01/19 09:14:13;;;;;;;44.08;21.97;;;;;;;2.32;94.63;101477.89;1632913;87;26541;-77
2022/01/19 09:16:39;;;;;;;35.83;20.05;;;;;;;2.32;94.61;101476.56;1633377;87;25923;-76
2022/01/19 09:19:07;;;;;;;42.53;22.05;;;;;;;2.33;94.56;101471.63;1633336;87;25866;-77
2022/01/19 09:21:34;;;;;;;42.83;22.00;;;;;;;2.36;94.57;101467.92;1633465;87;28300;-76
2022/01/19 09:24:00;;;;;;;43.78;21.97;;;;;;;2.39;94.56;101470.36;1632937;87;25834;-76
2022/01/19 09:26:29;;;;;;;44.65;22.55;;;;;;;2.41;94.43;101466.27;1633242;87;26496;-77
2022/01/19 09:28:56;;;;;;;43.17;21.97;;;;;;;2.41;94.40;101467.59;1633301;87;25948;-76
2022/01/19 09:31:23;;;;;;;41.60;19.90;;;;;;;2.43;94.44;101461.70;1632438;86;25827;-77
2022/01/19 09:34:04;;;;;;;44.30;23.18;;;;;;;2.43;94.53;101456.42;1632525;86;27716;-76
2022/01/19 09:36:44;;;;;;;45.83;23.10;;;;;;;2.43;94.45;101455.09;1630724;87;25851;-77
2022/01/19 09:38:52;;;;;;;50.85;27.37;;;;;;;2.44;94.41;101442.25;1630316;87;25830;-77
2022/01/19 09:41:20;;;;;;;41.13;23.98;;;;;;;2.45;94.47;101439.95;1632619;87;26495;-76
2022/01/19 09:43:47;;;;;;;39.13;21.68;;;;;;;2.47;94.44;101448.62;1637696;87;25928;-76
2022/01/19 09:46:13;;;;;;;39.33;21.15;;;;;;;2.50;94.41;101441.32;1637096;87;28099;-77
2022/01/19 09:48:40;;;;;;;48.35;23.20;;;;;;;2.53;94.42;101432.28;1637865;86;25755;-77
2022/01/19 09:51:06;;;;;;;40.28;22.77;;;;;;;2.52;94.24;101439.41;1636748;86;25532;-77
2022/01/19 09:53:32;;;;;;;35.60;19.85;;;;;;;2.55;94.24;101436.51;1637395;87;25758;-76
2022/01/19 09:55:59;;;;;;;37.03;19.48;;;;;;;2.55;94.14;101429.05;1636780;87;25945;-77
2022/01/19 09:58:25;;;;;;;42.95;21.60;;;;;;;2.53;94.00;101419.06;1637357;87;27458;-77
2022/01/19 10:00:52;;;;;;;41.05;20.57;;;;;;;2.56;94.11;101414.88;1637637;87;25970;-77
2022/01/19 10:03:28;;;;;;;40.78;23.20;;;;;;;2.55;94.00;101406.56;1636883;87;25963;-76
2022/01/19 10:06:07;;;;;;;58.20;36.48;;;;;;;2.55;94.00;101403.45;1637864;87;26519;-77
2022/01/19 10:08:43;;;;;;;113.22;65.05;;;;;;;2.54;94.04;101407.07;1636644;86;25919;-77
2022/01/19 10:17:04;;;;;;;35.25;21.85;;;;;;;2.52;94.06;101404.17;1637845;87;25835;-76
2022/01/19 10:19:45;;;;;;;43.55;24.12;;;;;;;2.52;94.16;101397.09;1636875;87;25890;-77
2022/01/19 10:22:26;;;;;;;56.92;31.42;;;;;;;2.52;94.11;101397.09;1637763;86;25913;-77
2022/01/19 10:25:00;;;;;;;49.08;29.37;;;;;;;2.53;94.14;101401.88;1637092;87;27479;-76
2022/01/19 10:27:42;;;;;;;52.80;31.23;;;;;;;2.52;94.11;101390.95;1638230;87;25817;-76
2022/01/19 10:30:21;;;;;;;45.70;26.80;;;;;;;2.51;94.20;101390.10;1637273;87;26441;-78
2022/01/19 10:32:55;;;;;;;44.42;28.60;;;;;;;2.50;94.24;101381.83;1637093;87;26482;-76
2022/01/19 10:35:38;;;;;;;45.60;26.37;;;;;;;2.50;94.21;101391.08;1637818;87;26023;-77
2022/01/19 10:38:25;;;;;;;50.65;26.37;;;;;;;2.50;94.25;101379.18;1636912;86;27516;-77
2022/01/19 10:41:05;;;;;;;44.80;23.05;;;;;;;2.52;94.15;101374.61;1637590;87;25772;-76
2022/01/19 10:43:41;;;;;;;47.45;24.50;;;;;;;2.54;94.20;101370.52;1637918;87;25724;-75
2022/01/19 10:46:28;;;;;;;50.70;25.55;;;;;;;2.55;94.15;101372.19;1637723;87;25784;-76
2022/01/19 10:49:02;;;;;;;48.02;23.80;;;;;;;2.55;94.11;101360.29;1636240;86;26005;-76
2022/01/19 10:51:37;;;;;;;48.63;25.30;;;;;;;2.54;94.08;101362.59;1637700;87;27532;-76
2022/01/19 10:54:17;;;;;;;48.00;24.55;;;;;;;2.53;94.11;101357.77;1637637;87;25944;-76
2022/01/19 10:56:48;;;;;;;42.90;23.40;;;;;;;2.53;94.13;101347.67;1637906;87;25897;-76
2022/01/19 10:59:18;;;;;;;50.25;26.02;;;;;;;2.53;94.09;101351.63;1627049;87;25954;-77
2022/01/19 11:01:52;;;;;;;47.43;26.07;;;;;;;2.54;94.14;101348.89;1637720;86;25347;-76
2022/01/19 11:04:23;;;;;;;38.30;20.68;;;;;;;2.54;94.12;101338.79;1637449;87;27491;-75
2022/01/19 11:06:54;;;;;;;68.30;29.42;;;;;;;2.56;94.00;101334.22;1636729;87;25838;-76
2022/01/19 11:09:27;;;;;;;51.88;23.57;;;;;;;2.55;93.94;101325.91;1637923;87;25733;-75
2022/01/19 11:11:56;;;;;;;46.08;23.02;;;;;;;2.54;93.92;101322.45;1636818;87;26526;-76
2022/01/19 11:14:25;;;;;;;39.63;20.52;;;;;;;2.59;94.00;101318.13;1638075;87;26575;-77
2022/01/19 11:16:52;;;;;;;32.33;17.37;;;;;;;2.61;93.88;101333.40;1636559;87;26892;-77
2022/01/19 11:19:20;;;;;;;34.95;20.62;;;;;;;2.57;93.66;101312.94;1638658;86;25795;-76
2022/01/19 11:22:21;;;;;;;32.08;18.87;;;;;;;2.55;93.70;101310.05;1637382;87;25312;-77
2022/01/19 11:25:02;;;;;;;;;;;;;;;2.54;93.68;101307.91;1640325;87;25831;-77
2022/01/19 11:27:37;;;;;;;;;;;;;;;2.54;93.85;101308.37;1609145;89;25784;-77
2022/01/19 11:30:24;;;;;;;41.25;20.70;;;;;;;2.50;93.92;101304.29;1632588;87;27489;-77
2022/01/19 11:33:26;;;;;;;48.58;26.75;;;;;;;2.49;94.01;101292.86;1637357;87;25955;-76
2022/01/19 11:36:01;;;;;;;51.70;28.95;;;;;;;2.50;93.98;101292.39;1636540;87;25305;-76
2022/01/19 11:38:42;;;;;;;115.08;43.92;;;;;;;2.51;94.01;101292.27;1637596;87;26975;-75
2022/01/19 11:41:16;;;;;;;58.38;30.77;;;;;;;2.51;93.87;101286.97;1636688;86;26620;-76
2022/01/19 11:43:57;;;;;;;76.22;32.17;;;;;;;2.49;93.82;101277.00;1632310;87;27470;-76
2022/01/19 11:46:32;;;;;;;77.47;36.28;;;;;;;2.53;93.94;101276.27;1631897;87;25819;-77
2022/01/19 11:49:02;;;;;;;45.20;26.10;;;;;;;2.54;93.95;101278.81;1632345;87;26278;-76
2022/01/19 11:51:38;;;;;;;45.10;26.52;;;;;;;2.56;93.75;101278.69;1608149;87;26204;-77
2022/01/19 11:54:18;;;;;;;57.58;32.00;;;;;;;2.57;93.77;101272.42;1632442;87;25939;-76
2022/01/19 11:57:03;;;;;;;43.35;27.75;;;;;;;2.55;93.61;101258.48;1632534;87;27501;-76
2022/01/19 11:59:51;;;;;;;39.73;24.45;;;;;;;2.53;93.60;101257.28;1632207;86;26544;-75
2022/01/19 12:02:37;;;;;;;38.55;24.30;;;;;;;2.51;93.59;101244.67;1632469;87;25739;-76
2022/01/19 12:05:14;;;;;;;50.60;27.13;;;;;;;2.50;93.58;101239.03;1632340;87;26693;-76
2022/01/19 12:07:48;;;;;;;42.25;24.35;;;;;;;2.52;93.72;101234.47;1632698;87;25889;-76
2022/01/19 12:10:32;;;;;;;39.13;22.60;;;;;;;2.52;93.64;101229.17;1632144;86;26995;-76
2022/01/19 12:16:20;;;;;;;46.35;28.30;;;;;;;2.52;93.72;101219.92;1632600;87;26025;-76
2022/01/19 12:18:48;;;;;;;53.80;26.50;;;;;;;2.53;93.77;101211.48;1632010;87;26698;-76
2022/01/19 12:21:35;;;;;;;47.05;27.98;;;;;;;2.54;93.73;101212.70;1632426;86;25894;-76
2022/01/19 12:24:19;;;;;;;49.13;26.00;;;;;;;2.54;93.67;101200.81;1632296;87;27479;-76
2022/01/19 12:27:08;;;;;;;64.40;34.15;;;;;;;2.53;93.45;101196.47;1632115;87;25975;-77
2022/01/19 12:29:38;;;;;;;86.00;47.70;;;;;;;2.55;93.52;101199.83;1632705;86;25846;-76
2022/01/19 12:32:23;;;;;;;83.72;47.15;;;;;;;2.57;93.48;101199.70;1632725;87;25800;-75
2022/01/19 12:35:11;;;;;;;57.88;36.85;;;;;;;2.60;93.56;101199.47;1632633;87;26550;-76
2022/01/19 12:37:48;;;;;;;50.33;29.00;;;;;;;2.65;93.54;101197.31;1632558;87;27554;-76
2022/01/19 12:40:24;;;;;;;50.85;31.35;;;;;;;2.65;93.25;101194.67;1632111;86;26018;-76
2022/01/19 12:43:01;;;;;;;63.05;36.95;;;;;;;2.62;93.03;101186.49;1632189;86;25896;-76
2022/01/19 12:45:48;;;;;;;59.38;33.18;;;;;;;2.60;92.90;101189.74;1632390;87;25931;-75
2022/01/19 12:48:34;;;;;;;55.38;31.45;;;;;;;2.58;93.03;101189.02;1632485;87;25899;-76
2022/01/19 12:51:01;;;;;;;48.73;27.82;;;;;;;2.58;92.98;101187.70;1632412;86;28286;-76
2022/01/19 12:53:28;;;;;;;53.87;30.37;;;;;;;2.57;92.92;101188.65;1632257;87;25769;-76
2022/01/19 12:56:04;;;;;;;49.42;28.67;;;;;;;2.55;92.88;101183.11;1632533;87;26569;-76
2022/01/19 12:58:35;;;;;;;55.52;28.12;;;;;;;2.56;93.03;101179.05;1632390;87;25853;-76
2022/01/19 13:01:08;;;;;;;56.35;30.57;;;;;;;2.57;92.97;101175.90;1632744;86;25863;-75
2022/01/19 13:03:41;;;;;;;56.65;29.07;;;;;;;2.56;92.83;101175.56;1632148;87;28183;-76